Time;durP1;ratioP1;P1;durP2;ratioP2;P2;SDS_P1;SDS_P2;PMS_P1;PMS_P2;Temp;Humidity;BMP_temperature;BMP_pressure;BME280_temperature;BME280_humidity;BME280_pressure;Samples;Min_cycle;Max_cycle;Signal;HPM_P1;HPM_P2
2022/06/21 00:01:46;;;;;;;12.20;2.67;;;13.00;99.90;;;;;;5013886;28;20513;-89
2022/06/21 00:04:12;;;;;;;9.17;3.53;;;13.10;99.90;;;;;;5000863;28;20465;-89
2022/06/21 00:06:37;;;;;;;12.70;4.53;;;13.20;99.90;;;;;;5014435;28;20187;-91
2022/06/21 00:09:03;;;;;;;5.57;2.40;;;13.20;99.90;;;;;;5013467;28;20171;-89
2022/06/21 00:11:31;;;;;;;6.40;2.27;;;13.20;99.90;;;;;;4997327;28;20186;-93
2022/06/21 00:13:57;;;;;;;7.13;2.60;;;13.20;99.90;;;;;;5013068;28;20207;-92
2022/06/21 00:16:26;;;;;;;20.10;5.33;;;13.20;99.90;;;;;;5013024;28;20453;-91
2022/06/21 00:18:52;;;;;;;6.60;2.80;;;13.10;99.90;;;;;;5013427;28;20172;-91
2022/06/21 00:21:32;;;;;;;7.93;2.50;;;13.00;99.90;;;;;;5013132;28;20422;-92
2022/06/21 00:23:57;;;;;;;6.10;2.57;;;13.00;99.90;;;;;;5013496;28;20425;-91
2022/06/21 00:26:26;;;;;;;7.73;3.07;;;13.10;99.90;;;;;;5012852;28;20477;-90
2022/06/21 00:28:52;;;;;;;4.30;1.93;;;13.10;99.90;;;;;;5012866;28;20288;-90
2022/06/21 00:31:21;;;;;;;6.60;2.70;;;13.10;99.90;;;;;;5012576;28;20434;-90
2022/06/21 00:33:47;;;;;;;8.30;3.27;;;13.10;99.90;;;;;;5012508;28;20217;-90
2022/06/21 00:36:28;;;;;;;13.03;3.90;;;13.10;99.90;;;;;;5012918;28;20806;-91
2022/06/21 00:38:56;;;;;;;6.67;2.50;;;13.20;99.90;;;;;;5012792;28;20415;-91
2022/06/21 00:41:40;;;;;;;9.63;2.87;;;13.10;99.90;;;;;;5012948;28;20516;-90
2022/06/21 00:44:14;;;;;;;7.60;2.93;;;13.10;99.90;;;;;;5012511;28;20493;-91
2022/06/21 00:46:47;;;;;;;15.23;4.20;;;13.20;99.90;;;;;;5011284;28;20437;-91
2022/06/21 00:49:35;;;;;;;10.80;3.53;;;13.00;99.90;;;;;;5015226;28;20434;-92
2022/06/21 00:52:35;;;;;;;7.40;3.40;;;12.80;99.90;;;;;;5012921;28;20440;-92
2022/06/21 00:55:10;;;;;;;8.67;2.63;;;12.70;99.90;;;;;;5012234;28;20929;-91
2022/06/21 00:57:47;;;;;;;7.63;2.17;;;12.80;99.90;;;;;;5012498;28;20432;-91
2022/06/21 01:00:27;;;;;;;11.23;3.67;;;12.80;99.90;;;;;;5012020;28;20579;-90
2022/06/21 01:02:53;;;;;;;13.30;4.47;;;12.70;99.90;;;;;;5012021;28;20427;-88
2022/06/21 01:05:19;;;;;;;12.43;4.73;;;12.70;99.90;;;;;;5011795;28;20972;-91
2022/06/21 01:07:46;;;;;;;8.03;3.20;;;12.70;99.90;;;;;;4996570;28;20424;-89
2022/06/21 01:10:16;;;;;;;7.30;2.50;;;12.70;99.90;;;;;;5011783;28;20172;-91
2022/06/21 01:13:00;;;;;;;12.00;4.37;;;12.70;99.90;;;;;;5011691;28;20456;-91
2022/06/21 01:15:31;;;;;;;16.00;3.33;;;12.70;99.90;;;;;;5011673;28;20428;-90
2022/06/21 01:18:00;;;;;;;8.97;3.97;;;12.60;99.90;;;;;;5011790;28;20429;-91
2022/06/21 01:20:30;;;;;;;9.23;3.10;;;12.60;99.90;;;;;;5011796;28;21111;-90
2022/06/21 01:23:03;;;;;;;9.23;3.57;;;12.70;99.90;;;;;;5011694;28;20989;-90
2022/06/21 01:25:54;;;;;;;10.20;3.67;;;12.50;99.90;;;;;;5011600;28;20487;-90
2022/06/21 01:28:22;;;;;;;12.30;3.87;;;12.50;99.90;;;;;;4995012;28;20566;-90
2022/06/21 01:30:51;;;;;;;9.60;3.60;;;12.50;99.90;;;;;;5011089;28;20457;-90
2022/06/21 01:33:26;;;;;;;12.13;3.87;;;12.50;99.90;;;;;;5011408;28;20443;-91
2022/06/21 01:35:55;;;;;;;5.37;2.73;;;12.50;99.90;;;;;;5011583;28;20435;-91
2022/06/21 01:38:25;;;;;;;8.50;2.27;;;12.60;99.90;;;;;;5011444;28;20418;-90
2022/06/21 01:40:56;;;;;;;10.57;3.50;;;12.70;99.90;;;;;;5011329;28;20424;-91
2022/06/21 01:43:28;;;;;;;11.97;4.30;;;12.60;99.90;;;;;;5011104;28;20510;-89
2022/06/21 01:45:58;;;;;;;7.37;2.33;;;12.60;99.90;;;;;;5010571;28;20532;-90
2022/06/21 01:48:35;;;;;;;13.07;3.70;;;12.60;99.90;;;;;;4994803;28;20478;-89
2022/06/21 01:51:06;;;;;;;5.90;2.80;;;12.60;99.90;;;;;;5010967;28;20916;-90
2022/06/21 01:53:32;;;;;;;10.60;4.13;;;12.60;99.90;;;;;;5010419;28;20416;-89
2022/06/21 01:56:13;;;;;;;14.13;4.00;;;12.50;99.90;;;;;;5010317;28;20483;-89
2022/06/21 01:58:43;;;;;;;10.50;5.03;;;12.50;99.90;;;;;;5010172;28;20910;-89
2022/06/21 02:01:55;;;;;;;10.13;4.00;;;12.50;99.90;;;;;;5010728;28;20425;-88
2022/06/21 02:04:24;;;;;;;11.70;3.23;;;12.50;99.90;;;;;;4984775;28;20444;-89
2022/06/21 02:06:52;;;;;;;10.37;4.10;;;12.50;99.90;;;;;;5010865;28;20425;-89
2022/06/21 02:09:21;;;;;;;9.53;3.60;;;12.50;99.90;;;;;;4994015;28;20415;-89
2022/06/21 02:12:00;;;;;;;11.53;3.60;;;12.50;99.90;;;;;;5010862;28;20520;-89
2022/06/21 02:14:29;;;;;;;9.30;3.50;;;12.40;99.90;;;;;;5012070;28;21062;-89
2022/06/21 02:17:21;;;;;;;13.93;3.60;;;12.50;99.90;;;;;;5010933;28;20430;-90
2022/06/21 02:19:56;;;;;;;9.90;4.40;;;12.60;99.90;;;;;;5010507;28;20516;-90
2022/06/21 02:22:25;;;;;;;7.10;3.93;;;12.70;99.90;;;;;;4993987;28;20422;-89
2022/06/21 02:24:52;;;;;;;6.53;2.77;;;12.70;99.90;;;;;;4993845;28;20470;-90
2022/06/21 02:27:21;;;;;;;9.03;3.20;;;12.60;99.90;;;;;;5010038;28;20484;-89
2022/06/21 02:29:51;;;;;;;12.00;4.30;;;12.60;99.90;;;;;;5010137;28;20421;-90
2022/06/21 02:32:38;;;;;;;7.57;2.30;;;12.50;99.90;;;;;;5010363;28;20440;-89
2022/06/21 02:35:12;;;;;;;7.73;2.67;;;12.40;99.90;;;;;;4987489;28;20427;-89
2022/06/21 02:37:38;;;;;;;11.13;2.90;;;12.40;99.90;;;;;;5010397;28;20511;-90
2022/06/21 02:40:08;;;;;;;6.43;2.63;;;12.40;99.90;;;;;;5010281;28;20509;-89
2022/06/21 02:42:38;;;;;;;8.83;2.50;;;12.40;99.90;;;;;;5010531;28;20432;-91
2022/06/21 02:45:26;;;;;;;6.23;2.63;;;12.40;99.90;;;;;;5010258;28;20461;-92
2022/06/21 02:47:53;;;;;;;6.30;2.67;;;12.40;99.90;;;;;;5010232;28;20435;-89
2022/06/21 02:50:34;;;;;;;14.80;4.10;;;12.30;99.90;;;;;;5010209;28;20429;-89
2022/06/21 02:53:01;;;;;;;8.53;2.97;;;12.20;99.90;;;;;;5010126;28;20431;-89
2022/06/21 02:55:36;;;;;;;11.00;4.30;;;12.10;99.90;;;;;;5009771;28;20423;-87
2022/06/21 02:58:24;;;;;;;11.50;3.90;;;12.10;99.90;;;;;;5009859;28;20416;-87
2022/06/21 03:00:51;;;;;;;12.30;3.87;;;11.90;99.90;;;;;;4993791;28;20420;-87
2022/06/21 03:03:22;;;;;;;9.10;3.30;;;11.80;99.90;;;;;;5009199;28;20423;-90
2022/06/21 03:05:52;;;;;;;14.90;3.50;;;11.80;99.90;;;;;;4992678;28;20468;-88
2022/06/21 03:08:18;;;;;;;16.17;4.20;;;11.70;99.90;;;;;;4992732;28;20422;-88
2022/06/21 03:10:46;;;;;;;16.30;4.87;;;11.60;99.90;;;;;;4991947;28;20416;-89
2022/06/21 03:13:18;;;;;;;10.90;3.30;;;11.60;99.90;;;;;;4993710;28;20408;-87
2022/06/21 03:15:48;;;;;;;16.00;2.93;;;11.60;99.90;;;;;;5008697;28;20456;-87
2022/06/21 03:18:19;;;;;;;9.13;2.87;;;11.50;99.90;;;;;;5006279;28;20404;-87
2022/06/21 03:20:46;;;;;;;10.60;3.87;;;11.50;99.90;;;;;;4989464;28;20487;-87
2022/06/21 03:23:13;;;;;;;11.63;4.70;;;11.50;99.90;;;;;;4989578;28;20423;-90
2022/06/21 03:26:02;;;;;;;13.73;3.60;;;11.50;99.90;;;;;;4973139;28;20555;-88
2022/06/21 03:28:30;;;;;;;10.40;3.80;;;11.50;99.90;;;;;;4974357;28;20500;-87
2022/06/21 03:31:19;;;;;;;7.70;4.10;;;11.50;99.90;;;;;;4989162;28;20851;-88
2022/06/21 03:33:48;;;;;;;12.67;3.10;;;11.50;99.90;;;;;;4974501;28;20940;-88
2022/06/21 03:36:18;;;;;;;17.03;3.93;;;11.60;99.90;;;;;;4974731;28;20443;-87
2022/06/21 03:38:47;;;;;;;13.03;4.47;;;11.50;99.90;;;;;;4989574;28;20441;-92
2022/06/21 03:44:07;;;;;;;12.40;4.47;;;11.50;99.90;;;;;;4974361;28;20467;-88
2022/06/21 03:46:39;;;;;;;16.20;3.27;;;11.60;99.90;;;;;;4989437;28;20471;-89
2022/06/21 03:49:14;;;;;;;12.90;4.13;;;11.60;99.90;;;;;;4989387;28;20415;-88
2022/06/21 03:51:45;;;;;;;10.00;5.07;;;11.60;99.90;;;;;;4973370;28;20427;-89
2022/06/21 03:54:48;;;;;;;7.30;3.37;;;11.60;99.90;;;;;;4973086;28;20417;-87
2022/06/21 03:57:35;;;;;;;10.90;3.50;;;11.60;99.90;;;;;;4974026;28;20942;-88
2022/06/21 04:00:09;;;;;;;11.87;3.40;;;11.70;99.90;;;;;;4989238;28;20440;-87
2022/06/21 04:02:55;;;;;;;14.30;3.60;;;11.70;99.90;;;;;;4989405;28;20436;-89
2022/06/21 04:05:30;;;;;;;9.17;2.20;;;11.70;99.90;;;;;;4972837;28;20519;-88
2022/06/21 04:08:37;;;;;;;5.37;2.83;;;11.70;99.90;;;;;;4988945;28;20784;-86
2022/06/21 04:11:24;;;;;;;5.20;3.07;;;11.80;99.90;;;;;;4936665;29;20416;-89
2022/06/21 04:14:05;;;;;;;6.10;2.90;;;11.70;99.90;;;;;;4952317;29;20428;-87
2022/06/21 04:16:36;;;;;;;12.50;3.73;;;11.80;99.90;;;;;;4977777;28;20443;-88
2022/06/21 04:20:01;;;;;;;11.47;3.20;;;11.80;99.90;;;;;;4988852;28;20484;-87
2022/06/21 04:22:41;;;;;;;12.80;4.30;;;11.80;99.90;;;;;;4961944;28;20421;-88
2022/06/21 04:25:34;;;;;;;9.53;3.50;;;11.80;99.90;;;;;;4992013;28;20476;-88
2022/06/21 04:28:15;;;;;;;10.93;3.20;;;11.80;99.90;;;;;;4992263;28;20487;-88
2022/06/21 04:30:51;;;;;;;12.60;3.93;;;11.90;99.90;;;;;;4977147;28;20482;-88
2022/06/21 04:33:29;;;;;;;11.23;4.67;;;12.00;99.90;;;;;;4992632;28;20465;-89
2022/06/21 04:36:00;;;;;;;9.03;3.23;;;12.10;99.90;;;;;;4992512;28;20423;-88
2022/06/21 04:38:32;;;;;;;10.80;3.37;;;12.10;99.90;;;;;;4992308;28;20458;-87
2022/06/21 04:41:04;;;;;;;14.37;3.40;;;12.10;99.90;;;;;;4992069;28;20557;-88
2022/06/21 04:43:33;;;;;;;8.93;3.13;;;12.20;99.90;;;;;;4992089;28;20425;-87
2022/06/21 04:46:34;;;;;;;4.90;3.03;;;12.20;99.90;;;;;;4976711;28;20539;-87
2022/06/21 04:49:10;;;;;;;12.47;3.73;;;12.30;99.90;;;;;;4975971;28;20466;-88
2022/06/21 04:51:45;;;;;;;8.77;3.07;;;12.40;99.90;;;;;;4992407;28;20418;-88
2022/06/21 04:54:32;;;;;;;7.70;2.87;;;12.40;99.90;;;;;;4992236;28;20518;-89
2022/06/21 04:56:58;;;;;;;12.20;3.30;;;12.50;99.90;;;;;;4991830;28;20437;-89
2022/06/21 04:59:49;;;;;;;9.33;2.87;;;12.60;99.90;;;;;;4991271;28;20416;-87
2022/06/21 05:02:23;;;;;;;8.63;2.67;;;12.70;99.90;;;;;;4973079;28;20240;-86
2022/06/21 05:05:00;;;;;;;7.10;2.40;;;12.80;99.90;;;;;;4976344;28;20470;-87
2022/06/21 05:07:31;;;;;;;5.47;2.20;;;12.90;99.90;;;;;;4976697;28;20420;-88
2022/06/21 05:10:04;;;;;;;11.27;2.87;;;13.00;99.90;;;;;;4991488;28;20422;-90
2022/06/21 05:12:40;;;;;;;15.33;3.33;;;13.10;99.90;;;;;;4991453;28;20435;-87
2022/06/21 05:15:14;;;;;;;12.57;3.30;;;13.30;99.90;;;;;;4990585;28;20948;-87
2022/06/21 05:17:44;;;;;;;13.10;2.90;;;13.50;99.90;;;;;;4990443;28;20418;-88
2022/06/21 05:20:22;;;;;;;8.13;2.87;;;13.60;99.90;;;;;;4980822;28;20451;-86
2022/06/21 05:22:52;;;;;;;5.00;3.03;;;13.70;99.90;;;;;;4994221;28;20455;-87
2022/06/21 05:25:38;;;;;;;10.93;3.20;;;13.90;99.90;;;;;;5010838;28;20462;-86
2022/06/21 05:28:34;;;;;;;10.43;2.40;;;14.20;99.90;;;;;;5010545;28;20542;-87
2022/06/21 05:31:14;;;;;;;9.10;2.50;;;14.40;99.90;;;;;;4989528;28;20492;-87
2022/06/21 05:33:51;;;;;;;7.43;2.23;;;14.80;99.90;;;;;;4995607;28;20457;-87
2022/06/21 05:36:21;;;;;;;11.43;2.80;;;15.10;99.90;;;;;;4985726;28;20909;-88
2022/06/21 05:39:14;;;;;;;9.97;2.23;;;15.50;99.90;;;;;;5004849;28;20530;-87
2022/06/21 05:41:43;;;;;;;5.57;1.00;;;15.80;99.90;;;;;;4993991;28;20431;-87
2022/06/21 05:44:11;;;;;;;4.83;1.50;;;16.10;99.90;;;;;;5010397;28;20947;-90
2022/06/21 05:46:42;;;;;;;6.57;1.47;;;16.40;99.90;;;;;;5011052;28;20512;-89
2022/06/21 05:49:40;;;;;;;8.50;1.80;;;16.50;99.90;;;;;;4995282;28;20895;-88
2022/06/21 05:52:12;;;;;;;8.97;1.87;;;16.90;99.90;;;;;;4992793;28;20434;-87
2022/06/21 05:55:19;;;;;;;4.77;1.13;;;17.10;99.90;;;;;;4995648;28;20479;-89
2022/06/21 05:57:49;;;;;;;11.83;1.87;;;17.20;71.10;;;;;;4994077;28;20460;-89
2022/06/21 06:00:36;;;;;;;10.87;3.40;;;17.10;35.90;;;;;;4994240;28;20523;-88
2022/06/21 06:03:19;;;;;;;5.47;1.47;;;17.20;1.00;;;;;;5010723;28;20427;-90
2022/06/21 06:05:47;;;;;;;5.80;1.47;;;17.50;43.90;;;;;;4995505;28;20468;-90
2022/06/21 06:08:20;;;;;;;4.50;1.20;;;17.80;1.00;;;;;;5010575;28;20414;-89
2022/06/21 06:10:47;;;;;;;8.07;0.80;;;18.10;1.00;;;;;;5010197;28;20417;-88
2022/06/21 06:13:20;;;;;;;7.43;0.60;;;18.00;1.00;;;;;;5010177;28;20432;-89
2022/06/21 06:15:50;;;;;;;6.47;0.97;;;18.30;1.00;;;;;;5010499;28;20420;-91
2022/06/21 06:18:24;;;;;;;7.13;0.83;;;18.40;1.00;;;;;;5011778;28;20429;-91
2022/06/21 06:21:01;;;;;;;6.70;1.40;;;18.50;99.90;;;;;;5010746;28;20490;-92
2022/06/21 06:23:41;;;;;;;6.40;0.73;;;18.70;1.00;;;;;;4994206;28;20441;-91
2022/06/21 06:26:24;;;;;;;8.73;0.70;;;18.60;1.00;;;;;;4990998;28;20465;-91
2022/06/21 06:28:58;;;;;;;6.27;1.10;;;18.60;1.00;;;;;;4990755;28;20470;-92
2022/06/21 06:31:36;;;;;;;7.80;1.13;;;18.90;16.40;;;;;;4992605;28;20437;-92
2022/06/21 06:34:24;;;;;;;4.50;0.93;;;19.20;1.00;;;;;;4992693;28;20455;-90
2022/06/21 06:36:54;;;;;;;3.17;0.60;;;19.20;32.20;;;;;;4991789;28;20435;-89
2022/06/21 06:39:30;;;;;;;6.90;1.43;;;19.00;36.10;;;;;;5003748;28;20424;-89
2022/06/21 06:42:13;;;;;;;5.60;1.70;;;19.40;1.00;;;;;;4996813;28;20441;-89
2022/06/21 06:44:43;;;;;;;7.97;1.27;;;20.00;91.50;;;;;;4993538;28;20430;-87
2022/06/21 06:47:25;;;;;;;6.70;1.57;;;20.30;1.00;;;;;;4995648;28;20835;-89
2022/06/21 06:49:58;;;;;;;6.40;1.53;;;20.50;1.00;;;;;;4990583;28;20953;-89
2022/06/21 06:52:32;;;;;;;4.10;0.90;;;20.70;1.00;;;;;;4990283;28;20466;-90
2022/06/21 06:55:36;;;;;;;6.80;1.43;;;20.80;1.00;;;;;;4990461;28;20475;-90
2022/06/21 06:58:06;;;;;;;5.83;0.93;;;21.00;99.90;;;;;;4990663;28;20454;-90
2022/06/21 07:00:37;;;;;;;4.43;0.90;;;21.20;54.30;;;;;;4989956;28;20430;-89
2022/06/21 07:03:13;;;;;;;9.93;1.47;;;21.40;99.90;;;;;;4975171;28;20451;-90
2022/06/21 07:06:02;;;;;;;5.90;0.80;;;22.10;1.00;;;;;;5054631;23;21061;-91
2022/06/21 07:08:55;;;;;;;5.50;0.70;;;22.70;99.90;;;;;;5009735;28;20407;-90
2022/06/21 07:11:50;;;;;;;5.73;0.60;;;23.30;99.90;;;;;;5009658;28;20424;-91
2022/06/21 07:14:20;;;;;;;2.60;0.50;;;24.50;99.90;;;;;;5009183;28;20433;-90
2022/06/21 07:16:49;;;;;;;7.53;1.63;;;24.70;99.90;;;;;;5009664;28;20426;-92
2022/06/21 07:19:15;;;;;;;6.53;1.37;;;25.50;87.40;;;;;;4994623;28;20514;-90
2022/06/21 07:21:41;;;;;;;2.53;0.73;;;26.20;47.80;;;;;;5009734;28;20449;-91
2022/06/21 07:24:15;;;;;;;6.20;0.70;;;27.30;33.10;;;;;;5009597;28;20207;-92
2022/06/21 07:27:04;;;;;;;7.10;0.63;;;28.20;15.70;;;;;;5010163;28;20222;-92
2022/06/21 07:29:35;;;;;;;5.43;1.03;;;28.50;1.00;;;;;;4993273;28;20430;-91
2022/06/21 07:32:16;;;;;;;4.00;0.90;;;28.10;1.00;;;;;;5010030;28;20533;-91
2022/06/21 07:34:48;;;;;;;7.30;1.40;;;27.40;1.00;;;;;;5009651;28;20418;-92
2022/06/21 07:37:24;;;;;;;4.80;1.20;;;28.40;1.00;;;;;;5009687;28;20425;-92
2022/06/21 07:40:00;;;;;;;6.00;1.03;;;29.60;1.00;;;;;;4994481;28;20430;-92
2022/06/21 07:42:45;;;;;;;6.07;1.40;;;30.50;1.00;;;;;;5009944;28;20421;-92
2022/06/21 07:45:28;;;;;;;4.50;1.00;;;30.10;1.00;;;;;;5009227;28;20461;-92
2022/06/21 07:48:01;;;;;;;4.40;0.80;;;31.10;1.00;;;;;;4995343;28;20398;-87
2022/06/21 07:50:49;;;;;;;5.53;1.03;;;30.60;1.00;;;;;;4993254;28;20423;-90
2022/06/21 07:53:21;;;;;;;6.87;1.17;;;31.80;1.00;;;;;;4993232;28;20818;-89
2022/06/21 07:55:53;;;;;;;4.13;0.63;;;31.70;1.00;;;;;;4994076;28;20407;-87
2022/06/21 07:58:28;;;;;;;8.20;1.70;;;32.10;1.00;;;;;;5011932;28;20431;-88
2022/06/21 08:06:43;;;;;;;4.30;0.97;;;31.20;1.00;;;;;;4996091;28;20536;-86
2022/06/21 08:09:22;;;;;;;5.40;0.77;;;31.80;1.00;;;;;;4997001;28;20542;-88
2022/06/21 08:11:50;;;;;;;7.27;1.53;;;32.70;1.00;;;;;;4992383;28;20513;-89
2022/06/21 08:14:17;;;;;;;7.13;0.73;;;33.20;1.00;;;;;;4976613;28;20419;-88
2022/06/21 08:16:53;;;;;;;5.10;0.70;;;33.40;1.00;;;;;;4992409;28;20483;-89
2022/06/21 08:19:36;;;;;;;5.37;1.13;;;33.00;1.00;;;;;;4992144;28;20438;-89
2022/06/21 08:22:07;;;;;;;4.70;0.97;;;33.80;1.00;;;;;;4992446;28;20432;-91
2022/06/21 08:25:13;;;;;;;4.70;0.97;;;32.50;1.00;;;;;;4992268;28;20450;-90
2022/06/21 08:27:52;;;;;;;7.30;0.93;;;32.10;1.00;;;;;;4976471;28;20522;-91
2022/06/21 08:30:20;;;;;;;5.07;0.60;;;32.30;1.00;;;;;;4991750;28;20841;-89
2022/06/21 08:33:24;;;;;;;5.20;0.40;;;32.70;1.00;;;;;;4991991;28;20475;-90
2022/06/21 08:36:04;;;;;;;4.60;0.40;;;33.90;1.00;;;;;;4964682;28;20467;-91
2022/06/21 08:38:52;;;;;;;3.60;1.07;;;33.60;1.00;;;;;;4976552;28;20422;-91
2022/06/21 08:44:32;;;;;;;3.97;1.00;;;34.40;1.00;;;;;;4976954;28;20575;-87
2022/06/21 08:47:28;;;;;;;6.00;1.17;;;35.10;1.00;;;;;;4981065;28;20427;-87
2022/06/21 08:50:39;;;;;;;5.53;1.43;;;36.00;1.00;;;;;;4976764;28;20487;-89
2022/06/21 08:53:10;;;;;;;6.83;1.47;;;35.90;1.00;;;;;;4991492;28;20441;-88
2022/06/21 08:56:02;;;;;;;3.83;0.97;;;35.10;1.00;;;;;;4991263;28;20471;-89
2022/06/21 08:59:02;;;;;;;3.20;1.00;;;35.60;1.00;;;;;;4976478;28;20408;-91
2022/06/21 09:01:41;;;;;;;5.93;1.20;;;34.70;1.00;;;;;;4972282;28;20928;-89
2022/06/21 09:04:25;;;;;;;11.03;2.37;;;35.50;1.00;;;;;;4991518;28;20463;-91
2022/06/21 09:07:09;;;;;;;5.33;1.33;;;35.30;1.00;;;;;;4976003;28;20424;-92
2022/06/21 09:09:45;;;;;;;8.43;1.80;;;34.60;1.00;;;;;;5024793;28;20447;-93
2022/06/21 09:12:22;;;;;;;6.30;1.47;;;34.60;1.00;;;;;;5014969;28;20430;-89
2022/06/21 09:15:19;;;;;;;2.50;0.80;;;35.10;1.00;;;;;;4994774;28;20886;-87
2022/06/21 09:18:18;;;;;;;4.40;1.40;;;36.00;1.00;;;;;;4995100;28;20481;-90
2022/06/21 09:21:04;;;;;;;6.27;1.23;;;37.10;1.00;;;;;;4994897;28;20414;-91
2022/06/21 09:23:56;;;;;;;3.33;2.00;;;37.60;1.00;;;;;;5010772;28;20438;-90
2022/06/21 09:26:33;;;;;;;4.43;1.60;;;37.10;1.00;;;;;;4995289;28;20943;-88
2022/06/21 09:29:19;;;;;;;3.50;1.83;;;36.30;1.00;;;;;;4993828;28;20993;-85
2022/06/21 09:32:14;;;;;;;3.47;1.17;;;35.80;1.00;;;;;;4994641;28;20413;-85
2022/06/21 09:35:20;;;;;;;4.67;0.70;;;36.50;1.00;;;;;;5002687;28;20443;-90
2022/06/21 09:38:19;;;;;;;5.80;0.87;;;36.90;1.00;;;;;;4989734;28;20427;-86
2022/06/21 09:40:56;;;;;;;3.90;0.20;;;36.70;1.00;;;;;;4990875;28;20787;-88
2022/06/21 09:43:52;;;;;;;3.23;0.73;;;36.80;1.00;;;;;;4975199;28;20810;-86
2022/06/21 09:46:43;;;;;;;4.00;0.67;;;36.20;1.00;;;;;;4975037;28;20416;-88
2022/06/21 09:49:29;;;;;;;4.50;0.77;;;37.00;1.00;;;;;;4983086;28;20416;-86
2022/06/21 09:51:57;;;;;;;2.10;0.40;;;37.60;1.00;;;;;;4989832;28;20970;-90
2022/06/21 09:54:34;;;;;;;6.83;0.97;;;39.10;1.00;;;;;;4978854;28;20788;-86
2022/06/21 09:57:18;;;;;;;3.83;0.40;;;37.30;1.00;;;;;;4990837;28;20948;-90
2022/06/21 10:00:10;;;;;;;4.43;0.83;;;38.00;1.00;;;;;;4989571;28;20478;-87
2022/06/21 10:03:10;;;;;;;2.53;0.40;;;39.10;1.00;;;;;;4984680;28;20781;-87
2022/06/21 10:06:03;;;;;;;4.77;0.93;;;37.40;1.00;;;;;;4995674;28;20462;-89
2022/06/21 10:08:57;;;;;;;2.43;0.57;;;37.60;1.00;;;;;;5009818;28;20422;-90
2022/06/21 10:11:32;;;;;;;1.67;0.60;;;38.10;1.00;;;;;;4996085;28;20799;-89
2022/06/21 10:14:20;;;;;;;1.70;0.57;;;36.90;1.00;;;;;;5009700;28;20430;-89
2022/06/21 10:17:06;;;;;;;1.23;0.30;;;38.10;1.00;;;;;;4995862;28;20563;-94
2022/06/21 10:19:46;;;;;;;4.57;0.50;;;40.10;1.00;;;;;;4994009;28;20419;-89
2022/06/21 10:22:35;;;;;;;5.67;0.63;;;39.20;1.00;;;;;;5000341;28;20443;-87
2022/06/21 10:25:33;;;;;;;2.13;0.47;;;38.90;1.00;;;;;;4974257;28;20427;-89
2022/06/21 10:28:30;;;;;;;4.50;0.50;;;39.30;1.00;;;;;;4974634;28;20408;-94
2022/06/21 10:31:20;;;;;;;4.30;0.80;;;39.70;1.00;;;;;;4992663;28;20438;-92
2022/06/21 10:34:00;;;;;;;2.50;0.30;;;40.30;1.00;;;;;;5008560;28;20423;-91
2022/06/21 10:37:09;;;;;;;3.10;0.60;;;40.90;1.00;;;;;;4994593;28;20474;-89
2022/06/21 10:40:12;;;;;;;2.77;0.97;;;39.80;1.00;;;;;;4971032;28;20430;-89
2022/06/21 10:42:48;;;;;;;2.50;0.57;;;38.80;1.00;;;;;;5010489;28;20426;-92
2022/06/21 10:45:14;;;;;;;3.10;0.53;;;37.90;1.00;;;;;;4992866;28;20418;-86
2022/06/21 10:48:11;;;;;;;2.63;0.30;;;36.90;1.00;;;;;;4992655;28;20473;-88
2022/06/21 10:51:04;;;;;;;3.83;0.40;;;37.10;1.00;;;;;;4993134;28;20202;-89
2022/06/21 10:53:42;;;;;;;4.90;1.07;;;38.90;1.00;;;;;;4992711;28;20465;-87
2022/06/21 11:02:50;;;;;;;3.73;0.47;;;40.30;1.00;;;;;;4993098;28;20422;-86
2022/06/21 11:05:40;;;;;;;3.90;0.40;;;40.60;1.00;;;;;;4992337;28;20502;-89
2022/06/21 11:08:23;;;;;;;1.33;0.43;;;40.40;1.00;;;;;;5007584;28;20419;-85
2022/06/21 11:11:11;;;;;;;2.03;0.53;;;41.20;1.00;;;;;;5007726;28;20426;-86
2022/06/21 11:13:49;;;;;;;2.43;0.83;;;41.40;1.00;;;;;;4992146;28;20838;-89
2022/06/21 11:16:34;;;;;;;3.73;0.93;;;42.30;1.00;;;;;;4992552;28;20561;-91
2022/06/21 11:19:06;;;;;;;4.10;0.50;;;41.10;1.00;;;;;;4992198;28;20415;-92
2022/06/21 11:21:51;;;;;;;2.13;0.47;;;41.20;1.00;;;;;;5009634;28;20513;-92
2022/06/21 11:24:31;;;;;;;2.67;0.60;;;40.00;1.00;;;;;;5011237;28;20418;-91
2022/06/21 11:27:35;;;;;;;1.77;0.40;;;39.40;1.00;;;;;;5009348;28;20791;-90
2022/06/21 11:30:06;;;;;;;2.07;0.30;;;41.60;1.00;;;;;;4990988;28;20431;-90
2022/06/21 11:32:35;;;;;;;2.63;0.27;;;43.30;1.00;;;;;;5009135;28;20546;-92
2022/06/21 11:35:23;;;;;;;2.20;0.60;;;44.80;1.00;;;;;;5009398;28;20467;-91
2022/06/21 11:38:01;;;;;;;4.40;0.50;;;44.50;1.00;;;;;;4973222;28;20427;-95
2022/06/21 11:40:47;;;;;;;2.47;0.43;;;44.00;1.00;;;;;;5008936;28;20431;-91
2022/06/21 11:43:47;;;;;;;1.60;0.43;;;44.00;1.00;;;;;;5007952;28;20426;-86
2022/06/21 11:46:35;;;;;;;2.70;0.63;;;43.90;1.00;;;;;;4991981;28;20445;-86
2022/06/21 11:49:03;;;;;;;4.50;0.70;;;42.60;1.00;;;;;;4992086;28;21005;-86
2022/06/21 11:51:43;;;;;;;4.13;0.70;;;42.20;1.00;;;;;;5007311;28;20907;-89
2022/06/21 11:54:19;;;;;;;2.10;0.50;;;42.80;1.00;;;;;;4992855;28;20919;-90
2022/06/21 11:57:11;;;;;;;4.57;0.73;;;43.60;1.00;;;;;;4992677;28;20490;-90
2022/06/21 11:59:50;;;;;;;2.10;0.53;;;41.90;1.00;;;;;;4991971;28;20968;-89
2022/06/21 12:02:29;;;;;;;2.80;0.47;;;42.10;1.00;;;;;;5007696;28;20522;-91
2022/06/21 12:05:20;;;;;;;4.93;0.87;;;43.30;1.00;;;;;;5008085;28;20454;-91
2022/06/21 12:08:08;;;;;;;2.73;0.50;;;43.10;1.00;;;;;;5009168;28;20823;-91
2022/06/21 12:10:53;;;;;;;3.80;0.63;;;42.80;1.00;;;;;;5008504;28;20423;-90
2022/06/21 12:13:51;;;;;;;2.30;0.63;;;42.30;1.00;;;;;;5007676;28;20794;-88
2022/06/21 12:16:42;;;;;;;3.17;0.30;;;41.10;1.00;;;;;;4993182;28;21086;-93
2022/06/21 12:19:16;;;;;;;3.60;0.50;;;42.40;1.00;;;;;;5009429;28;20458;-93
2022/06/21 12:22:11;;;;;;;4.20;0.67;;;42.40;1.00;;;;;;5008926;28;20908;-90
2022/06/21 12:24:38;;;;;;;3.50;0.57;;;43.30;1.00;;;;;;4976435;28;20776;-88
2022/06/21 12:27:10;;;;;;;2.33;0.57;;;44.30;1.00;;;;;;5008852;28;20418;-90
2022/06/21 12:29:35;;;;;;;4.17;0.83;;;44.10;1.00;;;;;;5007785;28;20439;-89
2022/06/21 12:32:03;;;;;;;3.90;0.90;;;44.00;1.00;;;;;;5008540;28;20420;-87
2022/06/21 12:34:55;;;;;;;3.50;0.43;;;42.90;1.00;;;;;;5010253;28;20183;-90
2022/06/21 12:37:35;;;;;;;2.80;0.80;;;39.80;1.00;;;;;;5008820;28;20443;-93
2022/06/21 12:40:10;;;;;;;3.07;1.07;;;39.60;1.00;;;;;;4993876;28;20419;-92
2022/06/21 12:43:00;;;;;;;2.40;0.83;;;42.00;1.00;;;;;;5010678;28;20437;-92
2022/06/21 12:45:48;;;;;;;4.73;0.97;;;41.70;1.00;;;;;;5015477;28;20486;-94
2022/06/21 12:48:26;;;;;;;3.00;0.53;;;41.90;1.00;;;;;;5026445;28;20487;-88
2022/06/21 12:51:16;;;;;;;4.90;0.70;;;41.40;1.00;;;;;;5017271;28;20489;-89
2022/06/21 12:53:54;;;;;;;4.17;0.50;;;42.60;1.00;;;;;;5012202;28;20418;-92
2022/06/21 12:56:32;;;;;;;2.80;0.53;;;42.20;1.00;;;;;;5012321;28;20474;-91
2022/06/21 12:59:20;;;;;;;3.30;0.97;;;42.70;1.00;;;;;;5010918;28;20419;-90
2022/06/21 13:02:14;;;;;;;4.73;0.90;;;43.80;1.00;;;;;;5011638;28;20426;-90
2022/06/21 13:05:12;;;;;;;2.10;0.43;;;44.30;1.00;;;;;;4996358;28;20999;-90
2022/06/21 13:08:11;;;;;;;2.13;0.50;;;45.20;1.00;;;;;;4995815;28;20778;-89
2022/06/21 13:10:58;;;;;;;2.47;0.63;;;44.00;1.00;;;;;;4998746;28;20845;-90
2022/06/21 13:14:03;;;;;;;1.47;0.60;;;44.00;1.00;;;;;;4994592;28;20871;-88
2022/06/21 13:17:15;;;;;;;3.90;0.60;;;45.00;1.00;;;;;;4978221;28;20482;-90
2022/06/21 13:20:04;;;;;;;3.03;1.07;;;45.20;1.00;;;;;;4996032;28;20442;-90
2022/06/21 13:22:43;;;;;;;4.10;1.20;;;45.50;1.00;;;;;;4996454;28;20821;-88
2022/06/21 13:25:24;;;;;;;3.77;0.77;;;44.60;1.00;;;;;;4994976;28;20450;-88
2022/06/21 13:28:34;;;;;;;1.97;1.27;;;44.30;1.00;;;;;;4994583;28;20417;-86
2022/06/21 13:31:35;;;;;;;3.13;0.57;;;43.40;1.00;;;;;;4988414;28;20423;-89
2022/06/21 13:34:19;;;;;;;4.03;0.80;;;42.20;1.00;;;;;;4991713;28;20458;-92
2022/06/21 13:36:51;;;;;;;2.60;1.33;;;42.20;1.00;;;;;;5012515;28;20470;-93
2022/06/21 13:39:43;;;;;;;3.53;0.80;;;40.80;1.00;;;;;;4995685;28;20419;-88
2022/06/21 13:45:17;;;;;;;2.73;0.57;;;42.80;1.00;;;;;;4994669;28;20461;-89
2022/06/21 13:47:54;;;;;;;3.10;0.90;;;42.80;1.00;;;;;;4994037;28;20411;-88
2022/06/21 13:50:36;;;;;;;3.43;1.13;;;42.30;1.00;;;;;;5009896;28;21008;-88
2022/06/21 13:53:29;;;;;;;3.20;0.80;;;41.40;1.00;;;;;;4993863;28;20395;-90
2022/06/21 13:56:02;;;;;;;4.63;1.00;;;40.20;1.00;;;;;;4996014;28;21013;-89
2022/06/21 13:58:42;;;;;;;1.80;0.30;;;37.90;1.00;;;;;;4992576;28;20958;-88
2022/06/21 14:01:34;;;;;;;2.50;0.60;;;36.00;1.00;;;;;;4993954;28;20426;-89
2022/06/21 14:04:21;;;;;;;4.23;0.87;;;33.80;1.00;;;;;;4993621;28;20501;-89
2022/06/21 14:06:58;;;;;;;3.40;0.57;;;31.90;1.00;;;;;;4993766;28;20411;-86
2022/06/21 14:09:40;;;;;;;2.60;0.70;;;30.10;1.00;;;;;;4993539;28;20422;-86
2022/06/21 14:12:15;;;;;;;3.33;0.90;;;29.90;1.00;;;;;;4994300;28;20450;-90
2022/06/21 14:15:10;;;;;;;3.20;0.63;;;29.10;1.00;;;;;;5010870;28;20418;-91
2022/06/21 14:17:49;;;;;;;4.67;1.30;;;28.50;1.00;;;;;;4985141;28;20446;-90